sensor_id;sensor_type;location;lat;lon;timestamp;P1;durP1;ratioP1;P2;durP2;ratioP2
19251;SDS011;9760;50.944;5.304;2023-03-13T00:00:50;21.97;;;3.43;;
19251;SDS011;9760;50.944;5.304;2023-03-13T00:03:17;21.13;;;3.80;;
19251;SDS011;9760;50.944;5.304;2023-03-13T00:05:43;19.27;;;3.07;;
19251;SDS011;9760;50.944;5.304;2023-03-13T00:08:08;16.00;;;2.70;;
19251;SDS011;9760;50.944;5.304;2023-03-13T00:10:40;14.23;;;3.17;;
19251;SDS011;9760;50.944;5.304;2023-03-13T00:13:06;25.13;;;3.87;;
19251;SDS011;9760;50.944;5.304;2023-03-13T00:15:32;26.23;;;3.60;;
19251;SDS011;9760;50.944;5.304;2023-03-13T00:17:58;19.70;;;3.93;;
19251;SDS011;9760;50.944;5.304;2023-03-13T00:20:24;19.87;;;3.30;;
19251;SDS011;9760;50.944;5.304;2023-03-13T00:22:50;21.83;;;3.77;;
19251;SDS011;9760;50.944;5.304;2023-03-13T00:25:15;25.47;;;3.53;;
19251;SDS011;9760;50.944;5.304;2023-03-13T00:27:41;25.07;;;3.37;;
19251;SDS011;9760;50.944;5.304;2023-03-13T00:30:07;25.30;;;3.67;;
19251;SDS011;9760;50.944;5.304;2023-03-13T00:32:33;21.47;;;4.03;;
19251;SDS011;9760;50.944;5.304;2023-03-13T00:35:04;23.07;;;3.50;;
19251;SDS011;9760;50.944;5.304;2023-03-13T00:37:30;30.63;;;4.10;;
19251;SDS011;9760;50.944;5.304;2023-03-13T00:39:56;25.50;;;3.73;;
19251;SDS011;9760;50.944;5.304;2023-03-13T00:42:21;28.57;;;4.60;;
19251;SDS011;9760;50.944;5.304;2023-03-13T00:44:47;17.67;;;3.27;;
19251;SDS011;9760;50.944;5.304;2023-03-13T00:47:12;24.10;;;3.53;;
19251;SDS011;9760;50.944;5.304;2023-03-13T00:49:38;17.07;;;3.10;;
19251;SDS011;9760;50.944;5.304;2023-03-13T00:52:04;22.57;;;2.97;;
19251;SDS011;9760;50.944;5.304;2023-03-13T00:54:29;19.10;;;3.53;;
19251;SDS011;9760;50.944;5.304;2023-03-13T00:56:55;20.00;;;3.40;;
19251;SDS011;9760;50.944;5.304;2023-03-13T00:59:20;17.13;;;2.43;;
19251;SDS011;9760;50.944;5.304;2023-03-13T01:01:46;15.10;;;2.43;;
19251;SDS011;9760;50.944;5.304;2023-03-13T01:04:12;19.37;;;3.10;;
19251;SDS011;9760;50.944;5.304;2023-03-13T01:06:38;16.20;;;3.20;;
19251;SDS011;9760;50.944;5.304;2023-03-13T01:09:07;16.40;;;2.90;;
19251;SDS011;9760;50.944;5.304;2023-03-13T01:11:34;14.23;;;3.30;;
19251;SDS011;9760;50.944;5.304;2023-03-13T01:14:03;18.43;;;3.00;;
19251;SDS011;9760;50.944;5.304;2023-03-13T01:16:32;19.87;;;3.03;;
19251;SDS011;9760;50.944;5.304;2023-03-13T01:19:00;15.53;;;3.43;;
19251;SDS011;9760;50.944;5.304;2023-03-13T01:21:27;17.47;;;2.93;;
19251;SDS011;9760;50.944;5.304;2023-03-13T01:23:53;11.67;;;2.70;;
19251;SDS011;9760;50.944;5.304;2023-03-13T01:26:19;13.57;;;2.50;;
19251;SDS011;9760;50.944;5.304;2023-03-13T01:28:45;7.53;;;2.43;;
19251;SDS011;9760;50.944;5.304;2023-03-13T01:33:44;13.33;;;2.93;;
19251;SDS011;9760;50.944;5.304;2023-03-13T01:36:10;11.33;;;2.50;;
19251;SDS011;9760;50.944;5.304;2023-03-13T01:38:37;11.73;;;2.63;;
19251;SDS011;9760;50.944;5.304;2023-03-13T01:41:04;14.07;;;2.73;;
19251;SDS011;9760;50.944;5.304;2023-03-13T01:43:32;10.23;;;2.33;;
19251;SDS011;9760;50.944;5.304;2023-03-13T01:48:36;9.07;;;2.33;;
19251;SDS011;9760;50.944;5.304;2023-03-13T01:51:22;6.53;;;2.30;;
19251;SDS011;9760;50.944;5.304;2023-03-13T01:54:02;6.33;;;2.37;;
19251;SDS011;9760;50.944;5.304;2023-03-13T01:56:47;10.50;;;2.63;;
19251;SDS011;9760;50.944;5.304;2023-03-13T02:02:27;10.63;;;2.83;;
19251;SDS011;9760;50.944;5.304;2023-03-13T02:04:55;4.70;;;2.67;;
19251;SDS011;9760;50.944;5.304;2023-03-13T02:07:36;6.40;;;3.00;;
19251;SDS011;9760;50.944;5.304;2023-03-13T02:10:08;8.57;;;3.13;;
19251;SDS011;9760;50.944;5.304;2023-03-13T02:12:36;4.70;;;2.73;;
19251;SDS011;9760;50.944;5.304;2023-03-13T02:15:05;8.93;;;3.37;;
19251;SDS011;9760;50.944;5.304;2023-03-13T02:17:36;7.60;;;3.13;;
19251;SDS011;9760;50.944;5.304;2023-03-13T02:20:03;10.47;;;3.40;;
19251;SDS011;9760;50.944;5.304;2023-03-13T02:22:48;7.27;;;3.40;;
19251;SDS011;9760;50.944;5.304;2023-03-13T02:28:02;10.77;;;4.20;;
19251;SDS011;9760;50.944;5.304;2023-03-13T02:30:32;10.47;;;4.00;;
19251;SDS011;9760;50.944;5.304;2023-03-13T02:32:59;6.30;;;3.87;;
19251;SDS011;9760;50.944;5.304;2023-03-13T02:35:26;9.47;;;4.53;;
19251;SDS011;9760;50.944;5.304;2023-03-13T02:37:54;12.40;;;4.00;;
19251;SDS011;9760;50.944;5.304;2023-03-13T02:40:25;15.33;;;4.90;;
19251;SDS011;9760;50.944;5.304;2023-03-13T02:42:54;8.67;;;3.80;;
19251;SDS011;9760;50.944;5.304;2023-03-13T02:45:22;8.37;;;4.27;;
19251;SDS011;9760;50.944;5.304;2023-03-13T02:47:48;9.30;;;4.03;;
19251;SDS011;9760;50.944;5.304;2023-03-13T02:50:14;13.60;;;4.27;;
19251;SDS011;9760;50.944;5.304;2023-03-13T02:52:42;8.63;;;3.67;;
19251;SDS011;9760;50.944;5.304;2023-03-13T02:55:15;9.60;;;4.40;;
19251;SDS011;9760;50.944;5.304;2023-03-13T02:57:47;8.03;;;4.00;;
19251;SDS011;9760;50.944;5.304;2023-03-13T03:00:12;10.17;;;3.97;;
19251;SDS011;9760;50.944;5.304;2023-03-13T03:02:44;13.07;;;4.00;;
19251;SDS011;9760;50.944;5.304;2023-03-13T03:05:11;7.73;;;3.80;;
19251;SDS011;9760;50.944;5.304;2023-03-13T03:07:37;9.10;;;3.50;;
19251;SDS011;9760;50.944;5.304;2023-03-13T03:10:03;6.33;;;3.40;;
19251;SDS011;9760;50.944;5.304;2023-03-13T03:12:29;9.50;;;3.70;;
19251;SDS011;9760;50.944;5.304;2023-03-13T03:14:54;10.93;;;3.30;;
19251;SDS011;9760;50.944;5.304;2023-03-13T03:17:20;7.80;;;3.73;;
19251;SDS011;9760;50.944;5.304;2023-03-13T03:19:45;10.60;;;3.70;;
19251;SDS011;9760;50.944;5.304;2023-03-13T03:22:11;10.37;;;4.40;;
19251;SDS011;9760;50.944;5.304;2023-03-13T03:24:37;5.87;;;3.87;;
19251;SDS011;9760;50.944;5.304;2023-03-13T03:27:02;9.40;;;4.67;;
19251;SDS011;9760;50.944;5.304;2023-03-13T03:29:28;8.70;;;3.87;;
19251;SDS011;9760;50.944;5.304;2023-03-13T03:31:53;7.93;;;4.07;;
19251;SDS011;9760;50.944;5.304;2023-03-13T03:34:19;8.67;;;4.67;;
19251;SDS011;9760;50.944;5.304;2023-03-13T03:36:45;7.63;;;4.17;;
19251;SDS011;9760;50.944;5.304;2023-03-13T03:39:10;8.83;;;4.73;;
19251;SDS011;9760;50.944;5.304;2023-03-13T03:41:36;9.30;;;4.33;;
19251;SDS011;9760;50.944;5.304;2023-03-13T03:44:02;6.17;;;4.47;;
19251;SDS011;9760;50.944;5.304;2023-03-13T03:46:28;7.03;;;4.80;;
19251;SDS011;9760;50.944;5.304;2023-03-13T03:48:54;7.47;;;4.23;;
19251;SDS011;9760;50.944;5.304;2023-03-13T03:51:19;9.13;;;4.70;;
19251;SDS011;9760;50.944;5.304;2023-03-13T03:53:45;9.67;;;4.50;;
19251;SDS011;9760;50.944;5.304;2023-03-13T03:56:11;7.90;;;4.37;;
19251;SDS011;9760;50.944;5.304;2023-03-13T03:58:37;6.33;;;3.97;;
19251;SDS011;9760;50.944;5.304;2023-03-13T04:01:02;8.40;;;3.80;;
19251;SDS011;9760;50.944;5.304;2023-03-13T04:03:28;8.13;;;3.27;;
19251;SDS011;9760;50.944;5.304;2023-03-13T04:05:54;7.53;;;3.70;;
19251;SDS011;9760;50.944;5.304;2023-03-13T04:08:20;6.73;;;3.87;;
19251;SDS011;9760;50.944;5.304;2023-03-13T04:10:49;5.27;;;3.37;;
19251;SDS011;9760;50.944;5.304;2023-03-13T04:13:15;6.53;;;3.20;;
19251;SDS011;9760;50.944;5.304;2023-03-13T04:15:41;6.40;;;3.20;;
19251;SDS011;9760;50.944;5.304;2023-03-13T04:18:07;6.20;;;3.17;;
19251;SDS011;9760;50.944;5.304;2023-03-13T04:20:32;6.10;;;2.87;;
19251;SDS011;9760;50.944;5.304;2023-03-13T04:22:58;8.10;;;3.13;;
19251;SDS011;9760;50.944;5.304;2023-03-13T04:25:24;5.30;;;3.00;;
19251;SDS011;9760;50.944;5.304;2023-03-13T04:27:50;7.23;;;2.70;;
19251;SDS011;9760;50.944;5.304;2023-03-13T04:30:16;7.67;;;3.13;;
19251;SDS011;9760;50.944;5.304;2023-03-13T04:32:42;4.40;;;2.80;;
19251;SDS011;9760;50.944;5.304;2023-03-13T04:35:07;5.27;;;2.80;;
19251;SDS011;9760;50.944;5.304;2023-03-13T04:37:33;7.60;;;3.27;;
19251;SDS011;9760;50.944;5.304;2023-03-13T04:39:59;6.80;;;2.60;;
19251;SDS011;9760;50.944;5.304;2023-03-13T04:42:25;5.23;;;3.13;;
19251;SDS011;9760;50.944;5.304;2023-03-13T04:44:51;8.33;;;2.63;;
19251;SDS011;9760;50.944;5.304;2023-03-13T04:47:17;8.80;;;3.03;;
19251;SDS011;9760;50.944;5.304;2023-03-13T04:49:43;5.30;;;2.40;;
19251;SDS011;9760;50.944;5.304;2023-03-13T04:52:08;3.63;;;2.13;;
19251;SDS011;9760;50.944;5.304;2023-03-13T04:54:34;4.70;;;2.40;;
19251;SDS011;9760;50.944;5.304;2023-03-13T04:57:00;5.30;;;2.30;;
19251;SDS011;9760;50.944;5.304;2023-03-13T04:59:25;5.30;;;2.40;;
19251;SDS011;9760;50.944;5.304;2023-03-13T05:01:51;6.47;;;2.50;;
19251;SDS011;9760;50.944;5.304;2023-03-13T05:04:17;5.87;;;2.40;;
19251;SDS011;9760;50.944;5.304;2023-03-13T05:06:42;4.00;;;2.13;;
19251;SDS011;9760;50.944;5.304;2023-03-13T05:09:08;9.40;;;2.47;;
19251;SDS011;9760;50.944;5.304;2023-03-13T05:11:34;8.87;;;2.33;;
19251;SDS011;9760;50.944;5.304;2023-03-13T05:13:59;5.50;;;2.17;;
19251;SDS011;9760;50.944;5.304;2023-03-13T05:16:25;8.87;;;2.70;;
19251;SDS011;9760;50.944;5.304;2023-03-13T05:18:51;7.10;;;2.33;;
19251;SDS011;9760;50.944;5.304;2023-03-13T05:21:17;3.87;;;2.27;;
19251;SDS011;9760;50.944;5.304;2023-03-13T05:23:42;4.33;;;2.30;;
19251;SDS011;9760;50.944;5.304;2023-03-13T05:26:08;9.00;;;2.80;;
19251;SDS011;9760;50.944;5.304;2023-03-13T05:28:34;6.70;;;2.13;;
19251;SDS011;9760;50.944;5.304;2023-03-13T05:30:59;7.50;;;2.60;;
19251;SDS011;9760;50.944;5.304;2023-03-13T05:33:25;6.63;;;2.50;;
19251;SDS011;9760;50.944;5.304;2023-03-13T05:35:50;4.70;;;2.60;;
19251;SDS011;9760;50.944;5.304;2023-03-13T05:38:16;8.07;;;2.33;;
19251;SDS011;9760;50.944;5.304;2023-03-13T05:40:42;7.20;;;2.30;;
19251;SDS011;9760;50.944;5.304;2023-03-13T05:43:08;6.67;;;2.20;;
19251;SDS011;9760;50.944;5.304;2023-03-13T05:45:33;5.87;;;2.00;;
19251;SDS011;9760;50.944;5.304;2023-03-13T05:47:59;5.83;;;2.17;;
19251;SDS011;9760;50.944;5.304;2023-03-13T05:50:24;9.10;;;2.20;;
19251;SDS011;9760;50.944;5.304;2023-03-13T05:52:50;4.07;;;1.77;;
19251;SDS011;9760;50.944;5.304;2023-03-13T05:55:16;6.70;;;2.20;;
19251;SDS011;9760;50.944;5.304;2023-03-13T05:57:43;4.77;;;2.10;;
19251;SDS011;9760;50.944;5.304;2023-03-13T06:00:10;15.63;;;2.20;;
19251;SDS011;9760;50.944;5.304;2023-03-13T06:02:36;10.80;;;2.30;;
19251;SDS011;9760;50.944;5.304;2023-03-13T06:05:02;11.40;;;2.50;;
19251;SDS011;9760;50.944;5.304;2023-03-13T06:07:27;9.40;;;2.23;;
19251;SDS011;9760;50.944;5.304;2023-03-13T06:09:53;8.80;;;2.13;;
19251;SDS011;9760;50.944;5.304;2023-03-13T06:12:18;8.40;;;2.10;;
19251;SDS011;9760;50.944;5.304;2023-03-13T06:14:44;12.87;;;2.80;;
19251;SDS011;9760;50.944;5.304;2023-03-13T06:17:09;9.23;;;2.47;;
19251;SDS011;9760;50.944;5.304;2023-03-13T06:19:35;4.23;;;2.10;;
19251;SDS011;9760;50.944;5.304;2023-03-13T06:22:01;10.30;;;2.20;;
19251;SDS011;9760;50.944;5.304;2023-03-13T06:24:26;6.33;;;2.17;;
19251;SDS011;9760;50.944;5.304;2023-03-13T06:26:52;8.30;;;2.53;;
19251;SDS011;9760;50.944;5.304;2023-03-13T06:29:17;10.57;;;2.50;;
19251;SDS011;9760;50.944;5.304;2023-03-13T06:31:43;5.93;;;2.30;;
19251;SDS011;9760;50.944;5.304;2023-03-13T06:34:09;5.00;;;2.00;;
19251;SDS011;9760;50.944;5.304;2023-03-13T06:36:36;7.37;;;2.10;;
19251;SDS011;9760;50.944;5.304;2023-03-13T06:39:02;6.73;;;2.13;;
19251;SDS011;9760;50.944;5.304;2023-03-13T06:41:28;8.20;;;2.27;;
19251;SDS011;9760;50.944;5.304;2023-03-13T06:43:53;11.67;;;2.40;;
19251;SDS011;9760;50.944;5.304;2023-03-13T06:46:20;7.17;;;2.30;;
19251;SDS011;9760;50.944;5.304;2023-03-13T06:48:47;9.97;;;2.30;;
19251;SDS011;9760;50.944;5.304;2023-03-13T06:51:14;8.10;;;2.50;;
19251;SDS011;9760;50.944;5.304;2023-03-13T06:53:41;11.80;;;2.67;;
19251;SDS011;9760;50.944;5.304;2023-03-13T06:56:07;10.50;;;2.50;;
19251;SDS011;9760;50.944;5.304;2023-03-13T06:58:33;8.83;;;2.30;;
19251;SDS011;9760;50.944;5.304;2023-03-13T07:01:04;7.07;;;2.13;;
19251;SDS011;9760;50.944;5.304;2023-03-13T07:03:31;7.83;;;2.20;;
19251;SDS011;9760;50.944;5.304;2023-03-13T07:05:58;8.43;;;2.30;;
19251;SDS011;9760;50.944;5.304;2023-03-13T07:08:24;10.60;;;2.43;;
19251;SDS011;9760;50.944;5.304;2023-03-13T07:10:50;8.03;;;2.13;;
19251;SDS011;9760;50.944;5.304;2023-03-13T07:13:17;10.37;;;2.53;;
19251;SDS011;9760;50.944;5.304;2023-03-13T07:15:44;5.87;;;2.20;;
19251;SDS011;9760;50.944;5.304;2023-03-13T07:18:10;10.40;;;2.27;;
19251;SDS011;9760;50.944;5.304;2023-03-13T07:20:35;9.33;;;2.30;;
19251;SDS011;9760;50.944;5.304;2023-03-13T07:23:01;10.77;;;3.10;;
19251;SDS011;9760;50.944;5.304;2023-03-13T07:25:27;8.80;;;2.57;;
19251;SDS011;9760;50.944;5.304;2023-03-13T07:27:53;11.40;;;2.80;;
19251;SDS011;9760;50.944;5.304;2023-03-13T07:30:19;11.30;;;2.83;;
19251;SDS011;9760;50.944;5.304;2023-03-13T07:32:45;8.33;;;2.33;;
19251;SDS011;9760;50.944;5.304;2023-03-13T07:35:10;9.80;;;2.50;;
19251;SDS011;9760;50.944;5.304;2023-03-13T07:37:36;12.93;;;2.90;;
19251;SDS011;9760;50.944;5.304;2023-03-13T07:40:01;9.00;;;2.30;;
19251;SDS011;9760;50.944;5.304;2023-03-13T07:42:28;10.53;;;2.40;;
19251;SDS011;9760;50.944;5.304;2023-03-13T07:44:54;7.77;;;2.70;;
19251;SDS011;9760;50.944;5.304;2023-03-13T07:47:19;11.53;;;3.00;;
19251;SDS011;9760;50.944;5.304;2023-03-13T07:49:45;10.23;;;3.27;;
19251;SDS011;9760;50.944;5.304;2023-03-13T07:52:11;11.30;;;2.53;;
19251;SDS011;9760;50.944;5.304;2023-03-13T07:54:36;10.63;;;2.53;;
19251;SDS011;9760;50.944;5.304;2023-03-13T07:57:02;8.17;;;2.50;;
19251;SDS011;9760;50.944;5.304;2023-03-13T07:59:28;8.53;;;2.40;;
19251;SDS011;9760;50.944;5.304;2023-03-13T08:01:53;10.47;;;2.60;;
19251;SDS011;9760;50.944;5.304;2023-03-13T08:04:19;9.93;;;2.53;;
19251;SDS011;9760;50.944;5.304;2023-03-13T08:06:45;15.57;;;2.30;;
19251;SDS011;9760;50.944;5.304;2023-03-13T08:09:10;9.47;;;2.27;;
19251;SDS011;9760;50.944;5.304;2023-03-13T08:11:37;13.77;;;2.67;;
19251;SDS011;9760;50.944;5.304;2023-03-13T08:14:05;13.60;;;2.57;;
19251;SDS011;9760;50.944;5.304;2023-03-13T08:16:31;9.97;;;2.40;;
19251;SDS011;9760;50.944;5.304;2023-03-13T08:18:58;8.33;;;2.53;;
19251;SDS011;9760;50.944;5.304;2023-03-13T08:21:25;8.93;;;3.17;;
19251;SDS011;9760;50.944;5.304;2023-03-13T08:23:56;8.57;;;2.60;;
19251;SDS011;9760;50.944;5.304;2023-03-13T08:26:27;11.20;;;2.80;;
19251;SDS011;9760;50.944;5.304;2023-03-13T08:28:54;8.07;;;2.40;;
19251;SDS011;9760;50.944;5.304;2023-03-13T08:31:24;7.37;;;2.53;;
19251;SDS011;9760;50.944;5.304;2023-03-13T08:33:51;8.70;;;2.57;;
19251;SDS011;9760;50.944;5.304;2023-03-13T08:36:18;7.00;;;2.37;;
19251;SDS011;9760;50.944;5.304;2023-03-13T08:38:49;7.47;;;2.40;;
19251;SDS011;9760;50.944;5.304;2023-03-13T08:41:16;5.33;;;1.97;;
19251;SDS011;9760;50.944;5.304;2023-03-13T08:43:44;12.53;;;2.73;;
19251;SDS011;9760;50.944;5.304;2023-03-13T08:46:11;8.53;;;2.20;;
19251;SDS011;9760;50.944;5.304;2023-03-13T08:48:37;14.07;;;2.00;;
19251;SDS011;9760;50.944;5.304;2023-03-13T08:53:31;6.73;;;2.03;;
19251;SDS011;9760;50.944;5.304;2023-03-13T08:55:57;11.80;;;2.53;;
19251;SDS011;9760;50.944;5.304;2023-03-13T08:58:23;6.57;;;1.97;;
19251;SDS011;9760;50.944;5.304;2023-03-13T09:00:49;5.43;;;2.03;;
19251;SDS011;9760;50.944;5.304;2023-03-13T09:03:14;4.33;;;2.17;;
19251;SDS011;9760;50.944;5.304;2023-03-13T09:05:41;7.83;;;2.37;;
19251;SDS011;9760;50.944;5.304;2023-03-13T09:08:07;9.27;;;1.80;;
19251;SDS011;9760;50.944;5.304;2023-03-13T09:10:33;7.77;;;2.50;;
19251;SDS011;9760;50.944;5.304;2023-03-13T09:12:59;7.10;;;1.80;;
19251;SDS011;9760;50.944;5.304;2023-03-13T09:15:25;7.23;;;2.43;;
19251;SDS011;9760;50.944;5.304;2023-03-13T09:17:51;8.60;;;2.80;;
19251;SDS011;9760;50.944;5.304;2023-03-13T09:20:16;3.37;;;1.77;;
19251;SDS011;9760;50.944;5.304;2023-03-13T09:22:43;6.33;;;2.00;;
19251;SDS011;9760;50.944;5.304;2023-03-13T09:25:10;8.70;;;2.20;;
19251;SDS011;9760;50.944;5.304;2023-03-13T09:27:36;5.87;;;2.00;;
19251;SDS011;9760;50.944;5.304;2023-03-13T09:30:02;7.70;;;2.00;;
19251;SDS011;9760;50.944;5.304;2023-03-13T09:32:28;5.77;;;1.87;;
19251;SDS011;9760;50.944;5.304;2023-03-13T09:34:53;5.87;;;1.80;;
19251;SDS011;9760;50.944;5.304;2023-03-13T09:37:19;7.33;;;2.00;;
19251;SDS011;9760;50.944;5.304;2023-03-13T09:39:48;7.87;;;1.70;;
19251;SDS011;9760;50.944;5.304;2023-03-13T09:45:15;10.90;;;2.00;;
19251;SDS011;9760;50.944;5.304;2023-03-13T09:47:41;5.30;;;1.80;;
19251;SDS011;9760;50.944;5.304;2023-03-13T09:50:21;9.23;;;1.80;;
19251;SDS011;9760;50.944;5.304;2023-03-13T09:52:52;4.83;;;1.70;;
19251;SDS011;9760;50.944;5.304;2023-03-13T09:55:25;6.17;;;1.77;;
19251;SDS011;9760;50.944;5.304;2023-03-13T09:57:55;7.07;;;1.90;;
19251;SDS011;9760;50.944;5.304;2023-03-13T10:00:32;5.07;;;1.93;;
19251;SDS011;9760;50.944;5.304;2023-03-13T10:03:11;8.83;;;1.60;;
19251;SDS011;9760;50.944;5.304;2023-03-13T10:05:47;6.70;;;1.80;;
19251;SDS011;9760;50.944;5.304;2023-03-13T10:08:20;8.97;;;1.40;;
19251;SDS011;9760;50.944;5.304;2023-03-13T10:13:41;4.63;;;1.60;;
19251;SDS011;9760;50.944;5.304;2023-03-13T10:19:11;4.90;;;1.60;;
19251;SDS011;9760;50.944;5.304;2023-03-13T10:21:39;4.63;;;1.60;;
19251;SDS011;9760;50.944;5.304;2023-03-13T10:24:15;3.97;;;1.37;;
19251;SDS011;9760;50.944;5.304;2023-03-13T10:26:46;6.53;;;1.50;;
19251;SDS011;9760;50.944;5.304;2023-03-13T10:31:49;5.20;;;1.20;;
19251;SDS011;9760;50.944;5.304;2023-03-13T10:34:21;4.60;;;1.23;;
19251;SDS011;9760;50.944;5.304;2023-03-13T10:36:48;4.20;;;1.30;;
19251;SDS011;9760;50.944;5.304;2023-03-13T10:39:20;6.60;;;1.20;;
19251;SDS011;9760;50.944;5.304;2023-03-13T10:41:47;4.23;;;1.50;;
19251;SDS011;9760;50.944;5.304;2023-03-13T10:44:18;4.43;;;1.20;;
19251;SDS011;9760;50.944;5.304;2023-03-13T10:46:53;2.73;;;1.07;;
19251;SDS011;9760;50.944;5.304;2023-03-13T10:49:26;3.10;;;1.10;;
19251;SDS011;9760;50.944;5.304;2023-03-13T10:52:02;5.30;;;1.07;;
19251;SDS011;9760;50.944;5.304;2023-03-13T10:54:32;2.07;;;1.00;;
19251;SDS011;9760;50.944;5.304;2023-03-13T10:59:47;1.40;;;1.30;;
19251;SDS011;9760;50.944;5.304;2023-03-13T11:02:36;3.07;;;1.00;;
19251;SDS011;9760;50.944;5.304;2023-03-13T11:05:03;4.73;;;1.00;;
19251;SDS011;9760;50.944;5.304;2023-03-13T11:07:48;3.00;;;0.93;;
19251;SDS011;9760;50.944;5.304;2023-03-13T11:10:23;2.70;;;1.00;;
19251;SDS011;9760;50.944;5.304;2023-03-13T11:12:51;2.73;;;1.17;;
19251;SDS011;9760;50.944;5.304;2023-03-13T11:17:49;9.33;;;1.00;;
19251;SDS011;9760;50.944;5.304;2023-03-13T11:20:29;3.73;;;1.37;;
19251;SDS011;9760;50.944;5.304;2023-03-13T11:23:04;3.70;;;0.97;;
19251;SDS011;9760;50.944;5.304;2023-03-13T11:31:13;3.37;;;0.87;;
19251;SDS011;9760;50.944;5.304;2023-03-13T11:36:31;2.33;;;0.80;;
19251;SDS011;9760;50.944;5.304;2023-03-13T11:47:15;2.30;;;0.90;;
19251;SDS011;9760;50.944;5.304;2023-03-13T11:50:25;0.80;;;0.70;;
19251;SDS011;9760;50.944;5.304;2023-03-13T11:53:03;4.97;;;0.90;;
19251;SDS011;9760;50.944;5.304;2023-03-13T12:00:57;1.57;;;0.80;;
19251;SDS011;9760;50.944;5.304;2023-03-13T12:06:01;1.23;;;0.90;;
19251;SDS011;9760;50.944;5.304;2023-03-13T12:08:30;1.43;;;0.80;;
19251;SDS011;9760;50.944;5.304;2023-03-13T12:13:45;2.80;;;1.20;;
19251;SDS011;9760;50.944;5.304;2023-03-13T12:19:29;1.43;;;0.73;;
19251;SDS011;9760;50.944;5.304;2023-03-13T12:22:24;4.37;;;1.00;;
19251;SDS011;9760;50.944;5.304;2023-03-13T12:25:05;4.13;;;0.87;;
19251;SDS011;9760;50.944;5.304;2023-03-13T12:28:20;3.13;;;1.00;;
19251;SDS011;9760;50.944;5.304;2023-03-13T12:31:16;3.43;;;0.80;;
19251;SDS011;9760;50.944;5.304;2023-03-13T12:33:44;3.77;;;0.93;;
19251;SDS011;9760;50.944;5.304;2023-03-13T12:36:35;5.47;;;0.87;;
19251;SDS011;9760;50.944;5.304;2023-03-13T12:41:51;1.93;;;1.10;;
19251;SDS011;9760;50.944;5.304;2023-03-13T12:44:25;5.87;;;1.37;;
19251;SDS011;9760;50.944;5.304;2023-03-13T12:46:59;2.77;;;0.70;;
19251;SDS011;9760;50.944;5.304;2023-03-13T12:49:47;1.40;;;0.80;;
19251;SDS011;9760;50.944;5.304;2023-03-13T13:01:01;4.47;;;0.70;;
19251;SDS011;9760;50.944;5.304;2023-03-13T13:03:44;4.70;;;1.37;;
19251;SDS011;9760;50.944;5.304;2023-03-13T13:06:18;1.50;;;0.60;;
19251;SDS011;9760;50.944;5.304;2023-03-13T13:14:01;0.63;;;0.53;;
19251;SDS011;9760;50.944;5.304;2023-03-13T13:16:50;1.90;;;0.60;;
19251;SDS011;9760;50.944;5.304;2023-03-13T13:19:42;8.80;;;1.20;;
19251;SDS011;9760;50.944;5.304;2023-03-13T13:30:00;1.67;;;1.00;;
19251;SDS011;9760;50.944;5.304;2023-03-13T13:32:36;3.47;;;1.47;;
19251;SDS011;9760;50.944;5.304;2023-03-13T13:37:38;5.10;;;1.57;;
19251;SDS011;9760;50.944;5.304;2023-03-13T13:42:55;6.70;;;1.30;;
19251;SDS011;9760;50.944;5.304;2023-03-13T13:47:50;2.50;;;1.27;;
19251;SDS011;9760;50.944;5.304;2023-03-13T13:50:38;5.27;;;1.37;;
19251;SDS011;9760;50.944;5.304;2023-03-13T13:53:23;8.40;;;1.30;;
19251;SDS011;9760;50.944;5.304;2023-03-13T13:55:53;3.50;;;1.00;;
19251;SDS011;9760;50.944;5.304;2023-03-13T13:58:23;6.80;;;1.63;;
19251;SDS011;9760;50.944;5.304;2023-03-13T14:03:29;4.97;;;0.90;;
19251;SDS011;9760;50.944;5.304;2023-03-13T14:06:09;4.40;;;0.90;;
19251;SDS011;9760;50.944;5.304;2023-03-13T14:08:43;8.07;;;1.60;;
19251;SDS011;9760;50.944;5.304;2023-03-13T14:11:20;4.30;;;1.10;;
19251;SDS011;9760;50.944;5.304;2023-03-13T14:14:13;4.03;;;0.90;;
19251;SDS011;9760;50.944;5.304;2023-03-13T14:16:42;3.20;;;1.10;;
19251;SDS011;9760;50.944;5.304;2023-03-13T14:19:23;3.00;;;0.80;;
19251;SDS011;9760;50.944;5.304;2023-03-13T14:21:59;4.67;;;1.10;;
19251;SDS011;9760;50.944;5.304;2023-03-13T14:24:30;5.23;;;1.10;;
19251;SDS011;9760;50.944;5.304;2023-03-13T14:26:55;6.33;;;1.20;;
19251;SDS011;9760;50.944;5.304;2023-03-13T14:29:21;5.93;;;1.20;;
19251;SDS011;9760;50.944;5.304;2023-03-13T14:31:51;2.93;;;1.43;;
19251;SDS011;9760;50.944;5.304;2023-03-13T14:34:18;3.47;;;1.70;;
19251;SDS011;9760;50.944;5.304;2023-03-13T14:36:50;3.47;;;1.00;;
19251;SDS011;9760;50.944;5.304;2023-03-13T14:42:00;8.60;;;1.53;;
19251;SDS011;9760;50.944;5.304;2023-03-13T14:44:35;5.57;;;1.40;;
19251;SDS011;9760;50.944;5.304;2023-03-13T14:47:22;2.57;;;1.30;;
19251;SDS011;9760;50.944;5.304;2023-03-13T14:49:56;4.93;;;1.10;;
19251;SDS011;9760;50.944;5.304;2023-03-13T14:52:33;3.13;;;1.17;;
19251;SDS011;9760;50.944;5.304;2023-03-13T14:55:00;5.27;;;1.10;;
19251;SDS011;9760;50.944;5.304;2023-03-13T14:57:31;12.00;;;1.40;;
19251;SDS011;9760;50.944;5.304;2023-03-13T15:03:18;10.57;;;1.20;;
19251;SDS011;9760;50.944;5.304;2023-03-13T15:08:29;6.07;;;1.43;;
19251;SDS011;9760;50.944;5.304;2023-03-13T15:10:55;6.27;;;1.47;;
19251;SDS011;9760;50.944;5.304;2023-03-13T15:15:53;10.17;;;1.67;;
19251;SDS011;9760;50.944;5.304;2023-03-13T15:18:23;6.23;;;1.30;;
19251;SDS011;9760;50.944;5.304;2023-03-13T15:20:51;4.00;;;0.97;;
19251;SDS011;9760;50.944;5.304;2023-03-13T15:23:21;6.13;;;1.33;;
19251;SDS011;9760;50.944;5.304;2023-03-13T15:25:46;7.87;;;1.30;;
19251;SDS011;9760;50.944;5.304;2023-03-13T15:28:16;6.97;;;1.33;;
19251;SDS011;9760;50.944;5.304;2023-03-13T15:30:44;7.80;;;1.60;;
19251;SDS011;9760;50.944;5.304;2023-03-13T15:33:16;8.77;;;1.40;;
19251;SDS011;9760;50.944;5.304;2023-03-13T15:35:44;6.90;;;1.30;;
19251;SDS011;9760;50.944;5.304;2023-03-13T15:38:17;5.37;;;1.33;;
19251;SDS011;9760;50.944;5.304;2023-03-13T15:40:44;5.00;;;1.17;;
19251;SDS011;9760;50.944;5.304;2023-03-13T15:43:10;10.37;;;1.50;;
19251;SDS011;9760;50.944;5.304;2023-03-13T15:45:37;3.87;;;1.30;;
19251;SDS011;9760;50.944;5.304;2023-03-13T15:48:20;5.87;;;1.40;;
19251;SDS011;9760;50.944;5.304;2023-03-13T15:50:51;4.30;;;1.23;;
19251;SDS011;9760;50.944;5.304;2023-03-13T15:53:20;7.60;;;1.63;;
19251;SDS011;9760;50.944;5.304;2023-03-13T15:55:48;6.60;;;1.43;;
19251;SDS011;9760;50.944;5.304;2023-03-13T15:58:14;3.90;;;1.17;;
19251;SDS011;9760;50.944;5.304;2023-03-13T16:00:41;10.17;;;1.50;;
19251;SDS011;9760;50.944;5.304;2023-03-13T16:03:12;6.67;;;1.30;;
19251;SDS011;9760;50.944;5.304;2023-03-13T16:05:40;5.73;;;1.27;;
19251;SDS011;9760;50.944;5.304;2023-03-13T16:08:09;11.40;;;1.27;;
19251;SDS011;9760;50.944;5.304;2023-03-13T16:10:47;9.37;;;1.40;;
19251;SDS011;9760;50.944;5.304;2023-03-13T16:13:13;10.60;;;1.27;;
19251;SDS011;9760;50.944;5.304;2023-03-13T16:15:39;8.03;;;1.20;;
19251;SDS011;9760;50.944;5.304;2023-03-13T16:18:05;5.10;;;1.63;;
19251;SDS011;9760;50.944;5.304;2023-03-13T16:20:33;5.93;;;1.20;;
19251;SDS011;9760;50.944;5.304;2023-03-13T16:22:59;6.43;;;2.00;;
19251;SDS011;9760;50.944;5.304;2023-03-13T16:25:27;4.97;;;1.60;;
19251;SDS011;9760;50.944;5.304;2023-03-13T16:27:55;9.53;;;1.57;;
19251;SDS011;9760;50.944;5.304;2023-03-13T16:30:23;9.87;;;1.70;;
19251;SDS011;9760;50.944;5.304;2023-03-13T16:32:50;11.13;;;2.17;;
19251;SDS011;9760;50.944;5.304;2023-03-13T16:35:16;7.67;;;1.57;;
19251;SDS011;9760;50.944;5.304;2023-03-13T16:37:42;8.00;;;1.53;;
19251;SDS011;9760;50.944;5.304;2023-03-13T16:40:12;7.73;;;1.60;;
19251;SDS011;9760;50.944;5.304;2023-03-13T16:42:43;5.20;;;1.50;;
19251;SDS011;9760;50.944;5.304;2023-03-13T16:45:09;5.70;;;1.77;;
19251;SDS011;9760;50.944;5.304;2023-03-13T16:47:35;7.30;;;1.40;;
19251;SDS011;9760;50.944;5.304;2023-03-13T16:50:02;5.97;;;1.60;;
19251;SDS011;9760;50.944;5.304;2023-03-13T16:52:42;10.80;;;2.53;;
19251;SDS011;9760;50.944;5.304;2023-03-13T16:55:07;5.87;;;1.70;;